createdAt,value
2023-04-11T00:01:39.476Z,94290.56
2023-04-11T00:04:07.928Z,94296.06
2023-04-11T00:06:36.204Z,94288.16
2023-04-11T00:09:05.589Z,94292.97
2023-04-11T00:11:33.508Z,94284.47
2023-04-11T00:14:01.413Z,94284.47
2023-04-11T00:16:29.286Z,94280.91
2023-04-11T00:18:58.029Z,94275.69
2023-04-11T00:21:26.029Z,94282.94
2023-04-11T00:23:54.134Z,94281.91
2023-04-11T00:26:23.512Z,94287.88
2023-04-11T00:28:51.479Z,94283.97
2023-04-11T00:31:19.410Z,94271.25
2023-04-11T00:33:47.293Z,94279.25
2023-04-11T00:36:15.364Z,94272.78
2023-04-11T00:38:44.808Z,94271.63
2023-04-11T00:41:12.963Z,94280.19
2023-04-11T00:43:42.239Z,94284.66
2023-04-11T00:46:10.324Z,94276.50
2023-04-11T00:48:38.343Z,94269.69
2023-04-11T00:51:06.571Z,94268.41
2023-04-11T00:53:35.953Z,94271.84
2023-04-11T00:56:04.044Z,94268.94
2023-04-11T00:58:33.936Z,94273.81
2023-04-11T01:01:09.239Z,94276.09
2023-04-11T01:03:37.921Z,94282.34
2023-04-11T01:06:07.625Z,94275.41
2023-04-11T01:08:37.492Z,94290.41
2023-04-11T01:11:06.485Z,94267.28
2023-04-11T01:13:35.292Z,94268.66
2023-04-11T01:16:05.203Z,94283.16
2023-04-11T01:18:33.423Z,94276.75
2023-04-11T01:21:01.648Z,94284.78
2023-04-11T01:23:30.967Z,94273.81
2023-04-11T01:25:58.875Z,94268.28
2023-04-11T01:28:26.795Z,94275.13
2023-04-11T01:30:54.679Z,94266.94
2023-04-11T01:33:22.688Z,94269.22
2023-04-11T01:35:52.794Z,94263.25
2023-04-11T01:38:20.746Z,94264.50
2023-04-11T01:40:50.209Z,94270.34
2023-04-11T01:43:18.128Z,94267.38
2023-04-11T01:45:46.504Z,94263.34
2023-04-11T01:50:44.115Z,94265.06
2023-04-11T01:53:12.002Z,94257.41
2023-04-11T01:55:39.855Z,94254.06
2023-04-11T01:58:09.046Z,94254.06
2023-04-11T02:00:37.884Z,94250.34
2023-04-11T02:03:06.435Z,94254.66
2023-04-11T02:05:34.418Z,94250.34
2023-04-11T02:08:02.355Z,94240.28
2023-04-11T02:10:30.355Z,94241.81
2023-04-11T02:12:58.391Z,94239.31
2023-04-11T02:15:27.782Z,94246.22
2023-04-11T02:17:55.815Z,94245.28
2023-04-11T02:20:24.125Z,94254.56
2023-04-11T02:22:56.439Z,94249.41
2023-04-11T02:25:24.296Z,94251.84
2023-04-11T02:27:52.151Z,94248.16
2023-04-11T02:30:20.032Z,94249.13
2023-04-11T02:32:49.559Z,94253.31
2023-04-11T02:35:17.851Z,94255.06
2023-04-11T02:37:45.688Z,94255.75
2023-04-11T02:40:13.779Z,94258.31
2023-04-11T02:42:43.464Z,94263.31
2023-04-11T02:45:12.784Z,94258.59
2023-04-11T02:47:40.748Z,94260.06
2023-04-11T02:50:11.209Z,94248.75
2023-04-11T02:52:42.134Z,94255.06
2023-04-11T02:55:10.646Z,94240.81
2023-04-11T02:57:38.479Z,94238.38
2023-04-11T03:00:09.062Z,94242.06
2023-04-11T03:02:37.218Z,94237.06
2023-04-11T03:05:06.491Z,94227.06
2023-04-11T03:07:38.521Z,94223.63
2023-04-11T03:10:07.646Z,94245.53
2023-04-11T03:12:35.596Z,94238.25
2023-04-11T03:15:03.609Z,94243.13
2023-04-11T03:17:31.604Z,94235.53
2023-04-11T03:19:59.636Z,94240.03
2023-04-11T03:22:27.506Z,94234.88
2023-04-11T03:24:56.766Z,94240.03
2023-04-11T03:27:24.686Z,94249.81
2023-04-11T03:29:52.706Z,94235.19
2023-04-11T03:32:20.613Z,94243.41
2023-04-11T03:34:48.484Z,94245.63
2023-04-11T03:37:16.377Z,94240.81
2023-04-11T03:39:44.247Z,94253.06
2023-04-11T03:42:13.769Z,94238.56
2023-04-11T03:44:41.626Z,94244.38
2023-04-11T03:47:09.561Z,94234.06
2023-04-11T03:49:37.436Z,94233.69
2023-04-11T03:52:05.537Z,94233.41
2023-04-11T03:54:33.476Z,94239.06
2023-04-11T03:57:01.316Z,94242.97
2023-04-11T03:59:30.691Z,94233.09
2023-04-11T04:01:58.805Z,94232.44
2023-04-11T04:04:27.122Z,94237.97
2023-04-11T04:06:57.023Z,94238.41
2023-04-11T04:09:25.028Z,94244.81
2023-04-11T04:11:52.929Z,94239.31
2023-04-11T04:14:20.905Z,94244.75
2023-04-11T04:16:50.274Z,94253.00
2023-04-11T04:19:18.151Z,94246.50
2023-04-11T04:21:46.695Z,94249.09
2023-04-11T04:24:14.550Z,94242.53
2023-04-11T04:26:42.440Z,94245.03
2023-04-11T04:29:12.707Z,94248.72
2023-04-11T04:31:41.193Z,94239.81
2023-04-11T04:34:11.565Z,94250.78
2023-04-11T04:36:47.804Z,94242.38
2023-04-11T04:39:18.024Z,94239.59
2023-04-11T04:41:48.700Z,94248.94
2023-04-11T04:44:17.459Z,94239.22
2023-04-11T04:46:45.447Z,94243.72
2023-04-11T04:49:14.777Z,94237.84
2023-04-11T04:51:42.635Z,94220.56
2023-04-11T04:54:10.616Z,94233.91
2023-04-11T04:56:38.542Z,94241.00
2023-04-11T04:59:06.510Z,94233.19
2023-04-11T05:01:35.310Z,94236.97
2023-04-11T05:04:03.432Z,94236.13
2023-04-11T05:06:33.567Z,94243.44
2023-04-11T05:09:03.197Z,94239.06
2023-04-11T05:11:31.077Z,94224.06
2023-04-11T05:13:58.962Z,94242.00
2023-04-11T05:16:27.044Z,94230.75
2023-04-11T05:18:55.064Z,94226.13
2023-04-11T05:21:23.465Z,94232.47
2023-04-11T05:23:52.744Z,94233.94
2023-04-11T05:26:20.659Z,94221.69
2023-04-11T05:28:48.761Z,94215.22
2023-04-11T05:31:17.079Z,94229.59
2023-04-11T05:33:45.069Z,94222.66
2023-04-11T05:36:14.316Z,94232.97
2023-04-11T05:38:42.714Z,94229.44
2023-04-11T05:41:12.764Z,94222.00
2023-04-11T05:43:40.734Z,94222.91
2023-04-11T05:46:09.829Z,94225.31
2023-04-11T05:48:38.216Z,94211.69
2023-04-11T05:51:06.893Z,94211.38
2023-04-11T05:53:34.876Z,94215.69
2023-04-11T05:56:02.930Z,94216.63
2023-04-11T05:58:32.162Z,94220.09
2023-04-11T06:01:00.855Z,94213.31
2023-04-11T06:03:28.887Z,94223.09
2023-04-11T06:05:57.164Z,94230.06
2023-04-11T06:08:25.122Z,94226.31
2023-04-11T06:10:53.037Z,94212.97
2023-04-11T06:13:20.940Z,94214.44
2023-04-11T06:15:50.297Z,94214.97
2023-04-11T06:18:18.381Z,94203.06
2023-04-11T06:20:47.153Z,94205.53
2023-04-11T06:23:15.007Z,94215.56
2023-04-11T06:25:42.987Z,94205.94
2023-04-11T06:28:11.035Z,94212.81
2023-04-11T06:30:38.936Z,94197.53
2023-04-11T06:33:08.246Z,94205.47
2023-04-11T06:35:36.884Z,94180.00
2023-04-11T06:38:04.861Z,94199.31
2023-04-11T06:40:32.766Z,94221.59
2023-04-11T06:43:01.875Z,94180.56
2023-04-11T06:45:30.019Z,94191.56
2023-04-11T06:47:57.986Z,94192.25
2023-04-11T06:50:27.668Z,94200.97
2023-04-11T06:52:55.606Z,94199.00
2023-04-11T06:55:24.582Z,94199.97
2023-04-11T06:57:52.536Z,94196.38
2023-04-11T07:00:21.853Z,94201.25
2023-04-11T07:02:50.136Z,94211.63
2023-04-11T07:05:18.216Z,94212.91
2023-04-11T07:07:47.847Z,94205.94
2023-04-11T07:10:15.930Z,94200.75
2023-04-11T07:12:44.121Z,94205.75
2023-04-11T07:15:12.414Z,94193.81
2023-04-11T07:17:40.440Z,94213.22
2023-04-11T07:20:10.049Z,94190.63
2023-04-11T07:22:38.334Z,94194.03
2023-04-11T07:25:08.346Z,94191.59
2023-04-11T07:27:36.752Z,94184.66
2023-04-11T07:30:04.850Z,94194.69
2023-04-11T07:32:32.772Z,94197.59
2023-04-11T07:35:00.876Z,94190.97
2023-04-11T07:37:30.304Z,94181.75
2023-04-11T07:39:58.192Z,94183.84
2023-04-11T07:42:27.524Z,94174.94
2023-04-11T07:44:55.593Z,94175.88
2023-04-11T07:47:23.521Z,94177.63
2023-04-11T07:49:51.358Z,94167.91
2023-04-11T07:52:19.353Z,94176.34
2023-04-11T07:54:47.288Z,94178.25
2023-04-11T07:57:15.466Z,94169.50
2023-04-11T07:59:45.020Z,94178.25
2023-04-11T08:02:14.350Z,94165.69
2023-04-11T08:04:42.568Z,94169.53
2023-04-11T08:07:11.480Z,94169.78
2023-04-11T08:09:39.353Z,94161.97
2023-04-11T08:12:07.467Z,94176.47
2023-04-11T08:14:35.749Z,94158.22
2023-04-11T08:17:12.030Z,94136.75
2023-04-11T08:19:45.960Z,94152.25
2023-04-11T08:22:13.901Z,94144.66
2023-04-11T08:24:41.953Z,94147.44
2023-04-11T08:27:09.862Z,94149.09
2023-04-11T08:29:37.781Z,94147.63
2023-04-11T08:32:07.578Z,94135.03
2023-04-11T08:34:35.603Z,94150.50
2023-04-11T08:37:04.705Z,94143.41
2023-04-11T08:39:32.686Z,94128.38
2023-04-11T08:42:01.061Z,94133.03
2023-04-11T08:44:29.000Z,94128.19
2023-04-11T08:46:56.913Z,94122.75
2023-04-11T08:49:26.210Z,94127.28
2023-04-11T08:51:56.233Z,94132.00
2023-04-11T08:54:24.078Z,94109.06
2023-04-11T08:56:52.134Z,94118.66
2023-04-11T08:59:20.032Z,94112.09
2023-04-11T09:01:49.737Z,94118.41
2023-04-11T09:04:17.767Z,94117.53
2023-04-11T09:07:00.581Z,94099.06
2023-04-11T09:09:31.911Z,94095.34
2023-04-11T09:11:59.988Z,94097.66
2023-04-11T09:14:28.504Z,94090.81
2023-04-11T09:16:58.652Z,94075.88
2023-04-11T09:19:27.328Z,94095.41
2023-04-11T09:22:00.720Z,94083.22
2023-04-11T09:24:29.669Z,94079.94
2023-04-11T09:27:11.878Z,94074.81
2023-04-11T09:29:41.902Z,94074.66
2023-04-11T09:32:27.616Z,94066.38
2023-04-11T09:35:09.712Z,94064.88
2023-04-11T09:37:47.585Z,94066.53
2023-04-11T09:40:16.957Z,94060.09
2023-04-11T09:42:45.621Z,94059.19
2023-04-11T09:45:20.615Z,94052.47
2023-04-11T09:47:50.046Z,94063.00
2023-04-11T09:50:18.716Z,94049.78
2023-04-11T09:52:48.186Z,94040.47
2023-04-11T09:55:19.339Z,94042.16
2023-04-11T09:57:49.422Z,94038.44
2023-04-11T10:00:21.846Z,94031.38
2023-04-11T10:02:52.902Z,94046.63
2023-04-11T10:05:22.128Z,94034.84
2023-04-11T10:07:56.379Z,94020.53
2023-04-11T10:10:25.923Z,94029.28
2023-04-11T10:12:53.835Z,94023.31
2023-04-11T10:15:22.494Z,94013.09
2023-04-11T10:18:09.719Z,94012.31
2023-04-11T10:20:46.236Z,94013.72
2023-04-11T10:23:16.674Z,94013.91
2023-04-11T10:26:00.479Z,94006.81
2023-04-11T10:28:38.256Z,93994.38
2023-04-11T10:31:09.080Z,94008.84
2023-04-11T10:33:38.756Z,94006.56
2023-04-11T10:36:10.221Z,93981.47
2023-04-11T10:38:50.018Z,93979.66
2023-04-11T10:41:28.105Z,93975.31
2023-04-11T10:44:18.285Z,93962.75
2023-04-11T10:46:51.217Z,93963.78
2023-04-11T10:49:39.320Z,93961.13
2023-04-11T10:52:25.350Z,93967.75
2023-04-11T10:54:55.825Z,93964.75
2023-04-11T10:57:23.950Z,93950.84
2023-04-11T10:59:59.652Z,93950.22
2023-04-11T11:02:39.094Z,93946.91
2023-04-11T11:05:20.585Z,93951.41
2023-04-11T11:07:51.728Z,93947.22
2023-04-11T11:10:46.248Z,93945.97
2023-04-11T11:13:16.913Z,93928.41
2023-04-11T11:15:49.627Z,93920.81
2023-04-11T11:18:19.183Z,93919.47
2023-04-11T11:20:47.155Z,93930.44
2023-04-11T11:23:15.033Z,93930.31
2023-04-11T11:25:55.403Z,93925.84
2023-04-11T11:28:23.922Z,93924.22
2023-04-11T11:30:54.852Z,93921.44
2023-04-11T11:33:25.119Z,93907.41
2023-04-11T11:35:55.614Z,93910.13
2023-04-11T11:38:26.088Z,93897.22
2023-04-11T11:40:56.027Z,93900.16
2023-04-11T11:43:24.229Z,93891.75
2023-04-11T11:46:11.059Z,93883.94
2023-04-11T11:48:39.115Z,93882.09
2023-04-11T11:51:07.764Z,93874.94
2023-04-11T11:53:35.914Z,93877.22
2023-04-11T11:56:16.361Z,93872.91
2023-04-11T11:58:45.650Z,93867.25
2023-04-11T12:01:17.578Z,93863.16
2023-04-11T12:03:48.453Z,93861.28
2023-04-11T12:06:17.283Z,93859.88
2023-04-11T12:08:50.280Z,93863.13
2023-04-11T12:11:19.714Z,93892.63
2023-04-11T12:13:53.408Z,93855.75
2023-04-11T12:16:23.915Z,93861.28
2023-04-11T12:18:52.055Z,93848.25
2023-04-11T12:21:20.119Z,93863.88
2023-04-11T12:23:47.968Z,93851.94
2023-04-11T12:26:17.621Z,93849.50
2023-04-11T12:28:46.984Z,93851.09
2023-04-11T12:31:14.976Z,93847.44
2023-04-11T12:33:42.875Z,93830.53
2023-04-11T12:36:12.253Z,93843.53
2023-04-11T12:38:40.209Z,93847.16
2023-04-11T12:41:30.038Z,93807.41
2023-04-11T12:43:57.738Z,93854.88
2023-04-11T12:46:26.404Z,93831.56
2023-04-11T12:48:54.702Z,93824.81
2023-04-11T12:51:22.680Z,93784.22
2023-04-11T12:53:52.749Z,93822.69
2023-04-11T12:56:20.701Z,93799.66
2023-04-11T12:58:48.575Z,93816.03
2023-04-11T13:01:18.308Z,93813.13
2023-04-11T13:03:46.338Z,93834.38
2023-04-11T13:06:14.365Z,93792.53
2023-04-11T13:08:42.403Z,93811.72
2023-04-11T13:11:10.352Z,93800.47
2023-04-11T13:13:38.206Z,93795.25
2023-04-11T13:16:07.296Z,93803.28
2023-04-11T13:18:36.705Z,93787.19
2023-04-11T13:21:04.646Z,93785.63
2023-04-11T13:23:32.556Z,93795.81
2023-04-11T13:26:01.076Z,93794.47
2023-04-11T13:28:29.885Z,93785.28
2023-04-11T13:30:59.044Z,93778.50
2023-04-11T13:33:27.410Z,93786.97
2023-04-11T13:35:56.701Z,93786.16
2023-04-11T13:38:25.700Z,93792.56
2023-04-11T13:40:53.634Z,93778.97
2023-04-11T13:43:21.741Z,93781.97
2023-04-11T13:45:49.690Z,93802.41
2023-04-11T13:48:17.722Z,93792.19
2023-04-11T13:50:45.622Z,93765.28
2023-04-11T13:53:14.859Z,93768.94
2023-04-11T13:55:45.092Z,93774.88
2023-04-11T13:58:14.404Z,93784.09
2023-04-11T14:00:42.458Z,93768.94
2023-04-11T14:03:10.434Z,93770.47
2023-04-11T14:05:38.464Z,93781.72
2023-04-11T14:08:07.184Z,93789.94
2023-04-11T14:10:36.519Z,93801.41
2023-04-11T14:13:05.460Z,93799.91
2023-04-11T14:15:33.553Z,93767.88
2023-04-11T14:18:02.745Z,93763.06
2023-04-11T14:20:30.761Z,93747.94
2023-04-11T14:22:58.724Z,93764.28
2023-04-11T14:25:26.645Z,93763.75
2023-04-11T14:27:56.197Z,93760.50
2023-04-11T14:30:24.496Z,93754.91
2023-04-11T14:32:52.538Z,93764.97
2023-04-11T14:35:20.497Z,93762.31
2023-04-11T14:37:49.479Z,93746.88
2023-04-11T14:40:17.807Z,93764.13
2023-04-11T14:42:45.920Z,93757.13
2023-04-11T14:45:15.317Z,93760.69
2023-04-11T14:47:43.572Z,93759.09
2023-04-11T14:50:12.137Z,93759.31
2023-04-11T14:52:40.190Z,93753.31
2023-04-11T14:55:09.436Z,93761.94
2023-04-11T14:57:46.351Z,93752.50
2023-04-11T15:00:20.863Z,93747.09
2023-04-11T15:02:50.751Z,93741.47
2023-04-11T15:05:20.256Z,93771.94
2023-04-11T15:07:49.383Z,93743.28
2023-04-11T15:10:19.226Z,93739.88
2023-04-11T15:12:47.270Z,93757.50
2023-04-11T15:15:16.816Z,93747.09
2023-04-11T15:17:48.079Z,93746.50
2023-04-11T15:20:16.988Z,93785.31
2023-04-11T15:22:46.599Z,93747.69
2023-04-11T15:25:16.838Z,93750.69
2023-04-11T15:27:44.841Z,93756.28
2023-04-11T15:30:13.675Z,93743.28
2023-04-11T15:32:44.710Z,93764.06
2023-04-11T15:35:12.881Z,93755.84
2023-04-11T15:37:41.085Z,93753.84
2023-04-11T15:40:12.367Z,93757.25
2023-04-11T15:42:40.995Z,93751.03
2023-04-11T15:45:09.422Z,93783.66
2023-04-11T15:47:37.435Z,93747.66
2023-04-11T15:50:07.723Z,93762.22
2023-04-11T15:52:35.757Z,93772.47
2023-04-11T15:55:03.706Z,93732.25
2023-04-11T15:57:31.571Z,93748.50
2023-04-11T15:59:59.901Z,93752.88
2023-04-11T16:02:28.538Z,93760.50
2023-04-11T16:04:56.853Z,93754.88
2023-04-11T16:07:27.460Z,93737.25
2023-04-11T16:09:56.736Z,93738.41
2023-04-11T16:12:24.613Z,93747.25
2023-04-11T16:14:52.542Z,93748.59
2023-04-11T16:17:20.720Z,93750.84
2023-04-11T16:19:52.051Z,93745.63
2023-04-11T16:22:21.027Z,93749.22
2023-04-11T16:24:50.474Z,93709.72
2023-04-11T16:27:19.798Z,93754.75
2023-04-11T16:29:47.748Z,93756.09
2023-04-11T16:32:15.639Z,93783.91
2023-04-11T16:34:43.536Z,93744.03
2023-04-11T16:37:11.481Z,93741.63
2023-04-11T16:39:39.473Z,93748.41
2023-04-11T16:42:09.271Z,93758.19
2023-04-11T16:44:37.641Z,93772.19
2023-04-11T16:47:05.916Z,93751.34
2023-04-11T16:49:33.806Z,93748.16
2023-04-11T16:52:01.763Z,93737.88
2023-04-11T16:54:29.796Z,93729.50
2023-04-11T16:56:57.789Z,93737.09
2023-04-11T16:59:28.204Z,93751.25
2023-04-11T17:01:56.172Z,93745.88
2023-04-11T17:04:24.221Z,93745.41
2023-04-11T17:06:52.185Z,93745.97
2023-04-11T17:09:20.267Z,93729.56
2023-04-11T17:11:48.120Z,93749.38
2023-04-11T17:14:16.371Z,93750.94
2023-04-11T17:16:46.104Z,93754.75
2023-04-11T17:19:14.122Z,93769.53
2023-04-11T17:21:42.161Z,93730.31
2023-04-11T17:24:10.061Z,93766.16
2023-04-11T17:26:38.001Z,93750.94
2023-04-11T17:29:06.662Z,93756.50
2023-04-11T17:31:34.583Z,93761.63
2023-04-11T17:34:04.448Z,93743.06
2023-04-11T17:36:32.404Z,93771.44
2023-04-11T17:39:00.360Z,93764.63
2023-04-11T17:41:28.347Z,93763.66
2023-04-11T17:43:57.214Z,93781.78
2023-04-11T17:46:25.371Z,93780.16
2023-04-11T17:48:53.324Z,93781.78
2023-04-11T17:51:22.620Z,93784.53
2023-04-11T17:53:50.758Z,93794.69
2023-04-11T17:56:18.954Z,93784.72
2023-04-11T17:58:48.193Z,93782.09
2023-04-11T18:01:16.258Z,93788.47
2023-04-11T18:03:44.389Z,93790.63
2023-04-11T18:06:12.336Z,93772.16
2023-04-11T18:11:12.746Z,93786.84
2023-04-11T18:13:40.946Z,93799.59
2023-04-11T18:16:10.958Z,93803.97
2023-04-11T18:18:39.269Z,93797.63
2023-04-11T18:21:08.008Z,93793.03
2023-04-11T18:23:36.083Z,93813.78
2023-04-11T18:26:05.494Z,93806.00
2023-04-11T18:28:33.388Z,93796.78
2023-04-11T18:31:01.714Z,93794.00
2023-04-11T18:33:29.765Z,93803.16
2023-04-11T18:35:57.724Z,93817.56
2023-04-11T18:38:25.693Z,93799.97
2023-04-11T18:40:56.142Z,93810.34
2023-04-11T18:43:26.200Z,93820.47
2023-04-11T18:45:54.088Z,93813.28
2023-04-11T18:48:22.108Z,93802.31
2023-04-11T18:50:59.275Z,93800.88
2023-04-11T18:53:28.386Z,93807.88
2023-04-11T18:55:56.337Z,93803.66
2023-04-11T18:58:26.094Z,93802.88
2023-04-11T19:00:55.973Z,93793.03
2023-04-11T19:03:24.294Z,93806.81
2023-04-11T19:05:53.016Z,93793.03
2023-04-11T19:08:21.181Z,93797.00
2023-04-11T19:10:52.195Z,93799.22
2023-04-11T19:13:20.144Z,93804.91
2023-04-11T19:15:48.308Z,93793.28
2023-04-11T19:18:18.048Z,93807.13
2023-04-11T19:20:46.113Z,93808.53
2023-04-11T19:23:14.006Z,93787.72
2023-04-11T19:25:42.892Z,93792.69
2023-04-11T19:28:11.005Z,93795.69
2023-04-11T19:30:39.337Z,93807.22
2023-04-11T19:33:07.798Z,93785.97
2023-04-11T19:35:37.166Z,93816.50
2023-04-11T19:38:05.895Z,93806.91
2023-04-11T19:40:35.743Z,93824.38
2023-04-11T19:43:04.644Z,93802.28
2023-04-11T19:45:32.751Z,93809.63
2023-04-11T19:48:00.820Z,93810.97
2023-04-11T19:50:28.936Z,93804.34
2023-04-11T19:52:58.363Z,93808.25
2023-04-11T19:55:27.351Z,93816.81
2023-04-11T19:57:56.459Z,93795.38
2023-04-11T20:00:26.580Z,93817.53
2023-04-11T20:02:55.387Z,93793.53
2023-04-11T20:05:23.895Z,93809.88
2023-04-11T20:07:51.776Z,93785.13
2023-04-11T20:10:20.984Z,93798.25
2023-04-11T20:12:48.928Z,93791.66
2023-04-11T20:15:16.995Z,93795.56
2023-04-11T20:17:47.270Z,93800.41
2023-04-11T20:20:16.919Z,93787.72
2023-04-11T20:22:45.854Z,93794.06
2023-04-11T20:25:13.804Z,93793.88
2023-04-11T20:27:44.256Z,93790.84
2023-04-11T20:30:13.217Z,93781.66
2023-04-11T20:32:41.998Z,93802.28
2023-04-11T20:35:12.136Z,93795.69
2023-04-11T20:37:41.451Z,93780.81
2023-04-11T20:40:10.741Z,93793.09
2023-04-11T20:42:41.753Z,93786.66
2023-04-11T20:45:13.275Z,93789.91
2023-04-11T20:47:41.971Z,93788.00
2023-04-11T20:50:14.114Z,93790.41
2023-04-11T20:52:43.468Z,93790.59
2023-04-11T20:55:11.867Z,93788.50
2023-04-11T20:57:39.781Z,93780.94
2023-04-11T21:00:13.915Z,93780.56
2023-04-11T21:02:45.829Z,93774.59
2023-04-11T21:05:14.622Z,93765.75
2023-04-11T21:07:43.303Z,93777.78
2023-04-11T21:10:12.241Z,93755.75
2023-04-11T21:12:40.906Z,93777.72
2023-04-11T21:15:10.025Z,93782.19
2023-04-11T21:17:39.435Z,93773.78
2023-04-11T21:20:17.905Z,93771.56
2023-04-11T21:22:46.488Z,93761.00
2023-04-11T21:25:14.624Z,93764.56
2023-04-11T21:27:42.684Z,93762.69
2023-04-11T21:30:12.067Z,93761.28
2023-04-11T21:32:40.969Z,93765.28
2023-04-11T21:35:11.957Z,93779.25
2023-04-11T21:37:40.517Z,93772.59
2023-04-11T21:40:09.355Z,93776.03
2023-04-11T21:42:37.310Z,93757.25
2023-04-11T21:45:05.581Z,93776.03
2023-04-11T21:47:33.518Z,93754.66
2023-04-11T21:50:01.532Z,93777.38
2023-04-11T21:52:30.816Z,93753.34
2023-04-11T21:54:58.723Z,93742.34
2023-04-11T21:57:27.153Z,93750.38
2023-04-11T21:59:55.035Z,93752.97
2023-04-11T22:02:23.115Z,93755.13
2023-04-11T22:05:04.610Z,93749.59
2023-04-11T22:07:39.468Z,93750.75
2023-04-11T22:10:10.499Z,93751.91
2023-04-11T22:12:39.153Z,93751.72
2023-04-11T22:15:08.196Z,93740.75
2023-04-11T22:17:37.245Z,93750.47
2023-04-11T22:20:11.217Z,93746.28
2023-04-11T22:22:40.510Z,93743.06
2023-04-11T22:25:10.010Z,93742.88
2023-04-11T22:27:38.539Z,93732.34
2023-04-11T22:30:08.813Z,93745.47
2023-04-11T22:32:37.009Z,93734.84
2023-04-11T22:35:05.687Z,93734.13
2023-04-11T22:37:33.551Z,93733.94
2023-04-11T22:40:06.085Z,93731.81
2023-04-11T22:42:33.990Z,93721.81
2023-04-11T22:45:01.896Z,93734.94
2023-04-11T22:47:32.540Z,93723.53
2023-04-11T22:50:00.608Z,93745.03
2023-04-11T22:52:30.361Z,93729.50
2023-04-11T22:54:58.328Z,93727.91
2023-04-11T22:57:27.595Z,93734.66
2023-04-11T22:59:55.467Z,93727.53
2023-04-11T23:02:25.354Z,93720.41
2023-04-11T23:04:53.700Z,93730.75
2023-04-11T23:07:22.387Z,93714.22
2023-04-11T23:09:52.652Z,93737.09
2023-04-11T23:12:21.049Z,93726.56
2023-04-11T23:14:50.455Z,93712.38
2023-04-11T23:17:18.429Z,93720.13
2023-04-11T23:19:47.208Z,93712.38
2023-04-11T23:22:15.078Z,93719.31
2023-04-11T23:24:42.993Z,93712.53
2023-04-11T23:27:11.677Z,93707.53
2023-04-11T23:29:39.808Z,93698.16
2023-04-11T23:32:09.407Z,93695.16
2023-04-11T23:34:37.309Z,93703.72
2023-04-11T23:37:05.204Z,93699.50
2023-04-11T23:39:33.073Z,93689.97
2023-04-11T23:42:01.067Z,93691.47
2023-04-11T23:44:28.908Z,93695.03
2023-04-11T23:46:56.957Z,93687.28
2023-04-11T23:49:26.751Z,93677.75
2023-04-11T23:51:54.621Z,93689.34
2023-04-11T23:54:22.499Z,93684.16
2023-04-11T23:56:50.906Z,93678.34
2023-04-11T23:59:18.730Z,93682.56
